Hatch, Utah
Current Conditions -  °F | °C
As of 2:53 AM on Wednesday 26 Nov 2014 (Local Time) from KBCE Reporting Station
Clear Clear  
Wind Chill: 30°   Ceiling: Unl
Heat Index: 35°   Visibility: 10mi
Dew Point: 20°   Wind: 6mph
Humidity: 54%   Direction: 320°NW
Pressure: 30.44"   Gusts: NA
Location:  37.65°N, 112.43°W
Report Text: KBCE 260953Z AUTO 32005KT 10SM CLR 02/M07 A3044 RMK AO2 SLP257 T00171067
Loading
Personal Weather Stations






























Interactive Weather Map New forecast layout! Learn more

10-Day Weather Forecast

Advertisements
Track Severe Weather on mobile